Terminal Aerodrome Forecast
Issued by NWS

Home | Current Version | Previous Version | Text Only | Print | Product List | Glossary On
Versions: 1 2 3 4 5 6 7 8 9 10 11 12 13 14
987
FTUS43 KOAX 071743
TAFCDR
TAF
KCDR 071743Z 0718/0818 31029G42KT P6SM SKC
     FM080000 29019G28KT P6SM BKN250
     FM080700 29014KT P6SM BKN250=

USA.gov is the U.S. government's official web portal to all federal, state and local government web resources and services.